Time;durP1;ratioP1;P1;durP2;ratioP2;P2;SDS_P1;SDS_P2;PMS_P1;PMS_P2;Temp;Humidity;BMP_temperature;BMP_pressure;BME280_temperature;BME280_humidity;BME280_pressure;Samples;Min_cycle;Max_cycle;Signal;HPM_P1;HPM_P2
2023/04/30 00:00:51;;;;;;;11.15;2.85;;;5.50;99.90;;;;;;5107295;28;20043;-74
2023/04/30 00:03:17;;;;;;;8.32;3.28;;;5.50;99.90;;;;;;5109323;28;20035;-73
2023/04/30 00:05:43;;;;;;;9.07;3.85;;;5.50;99.90;;;;;;5125743;28;20043;-73
2023/04/30 00:08:08;;;;;;;7.90;2.75;;;5.50;99.90;;;;;;5126628;28;20050;-74
2023/04/30 00:10:34;;;;;;;13.32;2.95;;;5.50;99.90;;;;;;5126911;28;20482;-73
2023/04/30 00:13:00;;;;;;;10.90;3.70;;;5.50;99.90;;;;;;5107227;28;20055;-73
2023/04/30 00:15:26;;;;;;;8.35;3.30;;;5.40;99.90;;;;;;5127313;28;20100;-74
2023/04/30 00:17:52;;;;;;;10.93;3.00;;;5.40;99.90;;;;;;5125748;28;20118;-73
2023/04/30 00:20:17;;;;;;;10.65;4.30;;;5.40;99.90;;;;;;5109122;28;20039;-74
2023/04/30 00:22:43;;;;;;;10.52;3.67;;;5.40;99.90;;;;;;5126099;28;20122;-74
2023/04/30 00:25:09;;;;;;;10.38;3.72;;;5.40;99.90;;;;;;5109649;27;20039;-73
2023/04/30 00:27:35;;;;;;;11.45;3.85;;;5.30;99.90;;;;;;5130619;27;20043;-74
2023/04/30 00:30:01;;;;;;;9.10;3.40;;;5.30;99.90;;;;;;5110969;27;20131;-73
2023/04/30 00:32:27;;;;;;;10.18;4.93;;;5.30;99.90;;;;;;5130990;27;20120;-73
2023/04/30 00:34:52;;;;;;;10.75;3.60;;;5.30;99.90;;;;;;5129259;27;20043;-73
2023/04/30 00:37:18;;;;;;;11.50;2.80;;;6.10;99.90;;;;;;5112429;27;20493;-73
2023/04/30 00:39:43;;;;;;;7.75;3.58;;;5.20;99.90;;;;;;5129272;27;20059;-73
2023/04/30 00:42:09;;;;;;;8.18;3.63;;;5.20;99.90;;;;;;5130469;27;20078;-74
2023/04/30 00:44:35;;;;;;;12.07;3.75;;;5.20;99.90;;;;;;5130105;27;20047;-74
2023/04/30 00:47:00;;;;;;;8.05;3.03;;;6.10;99.90;;;;;;5110791;27;20045;-73
2023/04/30 00:49:26;;;;;;;7.57;2.85;;;5.30;99.90;;;;;;5112274;27;20041;-73
2023/04/30 00:51:53;;;;;;;8.55;2.95;;;5.10;99.90;;;;;;5129047;27;20096;-73
2023/04/30 00:54:20;;;;;;;8.48;2.33;;;5.10;99.90;;;;;;5130563;27;20108;-73
2023/04/30 00:56:46;;;;;;;12.63;3.85;;;5.10;99.90;;;;;;5128661;27;20046;-73
2023/04/30 00:59:15;;;;;;;15.18;2.38;;;5.90;99.90;;;;;;5111631;27;20039;-73
2023/04/30 01:01:41;;;;;;;8.40;2.80;;;5.90;99.90;;;;;;5129689;27;20043;-74
2023/04/30 01:04:06;;;;;;;7.45;2.60;;;5.60;99.90;;;;;;5128792;27;20043;-74
2023/04/30 01:06:32;;;;;;;6.82;2.53;;;5.10;99.90;;;;;;5111821;27;20095;-74
2023/04/30 01:08:58;;;;;;;9.70;3.10;;;5.00;99.90;;;;;;5128918;27;20363;-73
2023/04/30 01:12:02;;;;;;;10.98;3.35;;;5.00;99.90;;;;;;5130532;27;20062;-72
2023/04/30 01:15:00;;;;;;;8.48;3.00;;;5.00;99.90;;;;;;5025481;28;20108;-73
2023/04/30 01:17:54;;;;;;;8.05;2.95;;;4.90;99.90;;;;;;5128272;27;20051;-73
2023/04/30 01:20:21;;;;;;;10.93;3.10;;;4.90;99.90;;;;;;5130093;27;20047;-73
2023/04/30 01:23:22;;;;;;;8.82;3.60;;;5.00;99.90;;;;;;5110431;27;20069;-73
2023/04/30 01:26:14;;;;;;;15.23;2.97;;;4.90;99.90;;;;;;5105801;27;20047;-74
2023/04/30 01:28:43;;;;;;;6.53;2.60;;;4.90;99.90;;;;;;5106340;27;20134;-73
2023/04/30 01:31:18;;;;;;;8.65;3.00;;;4.90;99.90;;;;;;5093691;27;20043;-73
2023/04/30 01:33:43;;;;;;;12.65;2.63;;;4.80;99.90;;;;;;5110887;27;20126;-73
2023/04/30 01:36:15;;;;;;;13.05;2.90;;;4.80;99.90;;;;;;5110389;27;20567;-72
2023/04/30 01:39:32;;;;;;;9.85;3.88;;;4.80;99.90;;;;;;5128071;27;20047;-73
2023/04/30 01:42:16;;;;;;;7.95;2.65;;;4.90;99.90;;;;;;5104178;27;20482;-73
2023/04/30 01:45:03;;;;;;;7.22;2.90;;;4.90;99.90;;;;;;5129031;27;20401;-73
2023/04/30 01:47:47;;;;;;;5.63;2.50;;;4.90;99.90;;;;;;5109147;27;20692;-73
2023/04/30 01:50:42;;;;;;;10.50;2.80;;;6.00;99.90;;;;;;5110868;27;20051;-73
2023/04/30 01:53:17;;;;;;;6.85;2.75;;;4.90;99.90;;;;;;5128655;27;20043;-73
2023/04/30 01:55:55;;;;;;;10.27;2.83;;;5.00;99.90;;;;;;5109508;27;20522;-73
2023/04/30 01:58:23;;;;;;;8.40;2.80;;;5.00;99.90;;;;;;5110981;27;20047;-73
2023/04/30 02:00:49;;;;;;;6.53;3.15;;;5.00;99.90;;;;;;5127975;27;20043;-73
2023/04/30 02:03:15;;;;;;;3.78;2.42;;;5.10;99.90;;;;;;5110574;27;20047;-74
2023/04/30 02:05:40;;;;;;;8.73;3.38;;;5.20;99.90;;;;;;5110029;27;20066;-74
2023/04/30 02:08:06;;;;;;;6.45;2.35;;;5.10;99.90;;;;;;5109385;27;20525;-73
2023/04/30 02:10:32;;;;;;;8.10;2.78;;;5.10;99.90;;;;;;5128906;27;20043;-73
2023/04/30 02:12:58;;;;;;;6.47;2.70;;;5.50;99.90;;;;;;5108650;27;20683;-73
2023/04/30 02:15:24;;;;;;;8.00;2.53;;;5.10;99.90;;;;;;5129455;27;20169;-73
2023/04/30 02:17:50;;;;;;;8.88;3.22;;;5.10;99.90;;;;;;5127491;27;20488;-73
2023/04/30 02:20:15;;;;;;;8.10;2.50;;;5.10;99.90;;;;;;5110478;27;20073;-73
2023/04/30 02:22:41;;;;;;;6.78;2.53;;;5.10;99.90;;;;;;5092068;27;20478;-74
2023/04/30 02:25:07;;;;;;;5.78;2.47;;;5.10;99.90;;;;;;5109383;27;20039;-74
2023/04/30 02:27:34;;;;;;;7.53;2.70;;;5.10;99.90;;;;;;5109775;27;20035;-74
2023/04/30 02:30:00;;;;;;;6.72;2.88;;;5.10;99.90;;;;;;5127257;27;20085;-73
2023/04/30 02:32:26;;;;;;;6.35;2.65;;;5.20;99.90;;;;;;5128643;27;20035;-73
2023/04/30 02:34:51;;;;;;;8.13;2.70;;;5.20;99.90;;;;;;5091107;27;20442;-73
2023/04/30 02:37:17;;;;;;;7.57;2.72;;;5.20;99.90;;;;;;5128644;27;20051;-74
2023/04/30 02:39:43;;;;;;;11.90;3.08;;;5.20;99.90;;;;;;5126712;27;20116;-73
2023/04/30 02:42:09;;;;;;;11.80;3.45;;;5.30;99.90;;;;;;5127763;27;20077;-73
2023/04/30 02:44:34;;;;;;;7.45;3.13;;;5.30;99.90;;;;;;5109068;27;20035;-73
2023/04/30 02:47:01;;;;;;;8.85;3.70;;;5.30;99.90;;;;;;5126769;27;20076;-73
2023/04/30 02:49:27;;;;;;;8.00;2.90;;;5.30;99.90;;;;;;5128248;27;20074;-74
2023/04/30 02:51:53;;;;;;;9.63;2.35;;;5.30;99.90;;;;;;5091371;27;20401;-74
2023/04/30 02:54:19;;;;;;;8.00;3.38;;;5.40;99.90;;;;;;5110108;27;20039;-73
2023/04/30 02:56:46;;;;;;;10.43;3.60;;;5.40;99.90;;;;;;5126852;27;20058;-73
2023/04/30 02:59:12;;;;;;;8.48;2.95;;;5.40;99.90;;;;;;5092399;27;20043;-73
2023/04/30 03:01:37;;;;;;;8.02;2.40;;;5.50;99.90;;;;;;5108718;27;20039;-73
2023/04/30 03:04:03;;;;;;;7.75;2.65;;;5.50;99.90;;;;;;5108435;27;20043;-73
2023/04/30 03:06:32;;;;;;;10.15;2.25;;;5.50;99.90;;;;;;5109393;27;20126;-74
2023/04/30 03:08:59;;;;;;;9.10;2.88;;;6.60;99.90;;;;;;5126247;27;20074;-73
2023/04/30 03:11:25;;;;;;;8.10;2.83;;;5.50;99.90;;;;;;5109466;27;20053;-73
2023/04/30 03:13:50;;;;;;;9.48;3.10;;;5.50;99.90;;;;;;5108229;27;20039;-73
2023/04/30 03:16:17;;;;;;;10.23;2.90;;;5.60;99.90;;;;;;5127176;27;20050;-73
2023/04/30 03:18:44;;;;;;;6.00;2.25;;;5.60;99.90;;;;;;5127356;27;20118;-73
2023/04/30 03:21:09;;;;;;;3.42;2.65;;;6.30;99.90;;;;;;5107828;27;20439;-73
2023/04/30 03:23:35;;;;;;;6.45;2.70;;;5.60;99.90;;;;;;5075143;27;20114;-73
2023/04/30 03:26:01;;;;;;;5.55;2.65;;;5.60;99.90;;;;;;5125752;27;20130;-73
2023/04/30 03:28:27;;;;;;;9.55;2.67;;;5.60;99.90;;;;;;5127929;27;20047;-73
2023/04/30 03:30:52;;;;;;;7.40;3.60;;;6.40;99.90;;;;;;5125948;27;20524;-72
2023/04/30 03:33:18;;;;;;;13.43;3.20;;;6.00;99.90;;;;;;5108580;27;20051;-73
2023/04/30 03:35:44;;;;;;;10.55;2.83;;;5.60;99.90;;;;;;5108310;27;20122;-73
2023/04/30 03:38:10;;;;;;;11.73;3.30;;;6.80;99.90;;;;;;5107881;27;20046;-73
2023/04/30 03:40:35;;;;;;;6.28;2.70;;;6.40;99.90;;;;;;5108814;28;20042;-73
2023/04/30 03:43:01;;;;;;;9.75;2.58;;;5.80;99.90;;;;;;5090525;28;20047;-73
2023/04/30 03:45:27;;;;;;;8.88;3.08;;;5.60;99.90;;;;;;5127711;28;20050;-73
2023/04/30 03:47:52;;;;;;;8.38;2.40;;;5.90;99.90;;;;;;5126012;28;20053;-73
2023/04/30 03:50:18;;;;;;;13.75;3.13;;;6.50;99.90;;;;;;5127584;28;20481;-73
2023/04/30 03:52:44;;;;;;;7.32;3.85;;;6.00;99.90;;;;;;5126582;28;20532;-73
2023/04/30 03:55:11;;;;;;;10.73;3.08;;;5.40;99.90;;;;;;5126172;28;20079;-73
2023/04/30 03:57:39;;;;;;;9.25;3.15;;;5.40;99.90;;;;;;5108407;28;20493;-73
2023/04/30 04:00:09;;;;;;;7.25;2.78;;;5.60;99.90;;;;;;5110408;27;20061;-73
2023/04/30 04:02:35;;;;;;;6.13;2.40;;;5.30;99.90;;;;;;5079684;27;20043;-73
2023/04/30 04:05:04;;;;;;;9.80;2.50;;;5.20;99.90;;;;;;5111665;27;20047;-73
2023/04/30 04:07:30;;;;;;;5.85;2.33;;;5.20;99.90;;;;;;5131239;27;20050;-73
2023/04/30 04:09:56;;;;;;;11.43;2.80;;;5.10;99.90;;;;;;5112114;27;20039;-73
2023/04/30 04:12:22;;;;;;;10.55;2.80;;;6.20;99.90;;;;;;5111750;27;20058;-73
2023/04/30 04:14:48;;;;;;;12.95;3.60;;;5.10;99.90;;;;;;5112412;27;20047;-73
2023/04/30 04:17:14;;;;;;;7.65;2.85;;;5.00;99.90;;;;;;5129365;27;20051;-73
2023/04/30 04:19:39;;;;;;;9.00;2.47;;;5.50;99.90;;;;;;5131514;27;20110;-74
2023/04/30 04:22:05;;;;;;;6.65;2.67;;;5.00;99.90;;;;;;5111495;27;20119;-73
2023/04/30 04:24:32;;;;;;;11.93;2.50;;;5.00;99.90;;;;;;5112509;27;20107;-73
2023/04/30 04:26:58;;;;;;;6.60;2.42;;;5.00;99.90;;;;;;5130299;27;20085;-73
2023/04/30 04:29:24;;;;;;;7.32;2.97;;;5.00;99.90;;;;;;5130173;27;20387;-73
2023/04/30 04:31:50;;;;;;;12.25;2.95;;;5.00;99.90;;;;;;5112111;27;20438;-73
2023/04/30 04:34:16;;;;;;;4.75;2.40;;;4.90;99.90;;;;;;5129509;27;20038;-73
2023/04/30 04:36:42;;;;;;;7.78;3.05;;;5.20;99.90;;;;;;5130762;27;20482;-73
2023/04/30 04:39:07;;;;;;;4.03;2.28;;;5.00;99.90;;;;;;5110331;27;20058;-73
2023/04/30 04:41:34;;;;;;;8.18;2.80;;;5.00;99.90;;;;;;5112046;27;20055;-72
2023/04/30 04:44:03;;;;;;;7.28;3.00;;;5.10;99.90;;;;;;5111712;27;20628;-73
2023/04/30 04:46:33;;;;;;;11.25;3.67;;;5.10;99.90;;;;;;5094744;27;20043;-74
2023/04/30 04:48:58;;;;;;;9.55;3.08;;;5.10;99.90;;;;;;5112041;27;20398;-72
2023/04/30 04:51:24;;;;;;;8.75;3.13;;;5.50;99.90;;;;;;5093437;27;20284;-74
2023/04/30 04:53:50;;;;;;;8.25;2.72;;;5.30;99.90;;;;;;5094995;27;20051;-74
2023/04/30 04:56:16;;;;;;;12.23;2.88;;;5.40;99.90;;;;;;5093134;27;20119;-76
2023/04/30 04:58:43;;;;;;;5.40;2.80;;;5.70;99.90;;;;;;5094946;27;20046;-74
2023/04/30 05:01:09;;;;;;;13.45;4.07;;;5.60;99.90;;;;;;5129601;27;20047;-75
2023/04/30 05:03:38;;;;;;;7.72;2.97;;;5.60;99.90;;;;;;5130143;27;20402;-75
2023/04/30 05:06:04;;;;;;;7.88;4.20;;;5.70;99.90;;;;;;5130341;27;20047;-74
2023/04/30 05:08:30;;;;;;;10.43;3.00;;;5.80;99.90;;;;;;5128739;27;20082;-74
2023/04/30 05:10:56;;;;;;;10.18;3.08;;;5.90;99.90;;;;;;5111283;27;20047;-74
2023/04/30 05:13:22;;;;;;;8.35;3.20;;;6.30;99.90;;;;;;5109731;27;20092;-73
2023/04/30 05:15:52;;;;;;;5.90;2.90;;;6.10;99.90;;;;;;5094808;27;20486;-74
2023/04/30 05:18:18;;;;;;;14.05;3.38;;;6.80;99.90;;;;;;5129180;27;20043;-74
2023/04/30 05:20:43;;;;;;;16.85;3.65;;;6.60;99.90;;;;;;5129321;27;20043;-74
2023/04/30 05:23:09;;;;;;;12.70;3.13;;;6.30;99.90;;;;;;5111388;27;20139;-73
2023/04/30 05:25:35;;;;;;;10.88;2.65;;;6.40;99.90;;;;;;5109612;27;20039;-73
2023/04/30 05:28:02;;;;;;;17.35;3.03;;;6.50;99.90;;;;;;5130074;27;20095;-73
2023/04/30 05:30:28;;;;;;;7.55;2.50;;;6.70;99.90;;;;;;5093071;27;20058;-73
2023/04/30 05:32:55;;;;;;;9.48;2.97;;;6.60;99.90;;;;;;5130433;27;20583;-73
2023/04/30 05:35:21;;;;;;;10.40;3.20;;;6.70;99.90;;;;;;5110329;27;20168;-74
2023/04/30 05:37:47;;;;;;;12.38;3.35;;;6.80;99.90;;;;;;5129186;27;20122;-73
2023/04/30 05:40:13;;;;;;;13.77;3.63;;;7.00;99.90;;;;;;5128905;27;20059;-74
2023/04/30 05:42:42;;;;;;;10.80;2.95;;;6.90;99.90;;;;;;5109349;27;20043;-75
2023/04/30 05:45:13;;;;;;;17.80;3.03;;;7.00;99.90;;;;;;5111641;27;20478;-74
2023/04/30 05:47:39;;;;;;;9.68;3.05;;;7.20;99.90;;;;;;5127812;27;20055;-75
2023/04/30 05:50:06;;;;;;;6.45;3.08;;;7.30;99.90;;;;;;5129722;27;20050;-72
2023/04/30 05:52:31;;;;;;;11.57;3.55;;;7.40;99.90;;;;;;5092699;27;20050;-74
2023/04/30 05:54:57;;;;;;;17.92;4.38;;;8.20;99.90;;;;;;5128344;27;20405;-74
2023/04/30 05:57:23;;;;;;;8.30;4.18;;;8.20;99.90;;;;;;5110070;27;20058;-74
2023/04/30 05:59:49;;;;;;;14.15;4.07;;;7.70;99.90;;;;;;5108984;27;20119;-74
2023/04/30 06:02:14;;;;;;;12.73;4.40;;;7.70;99.90;;;;;;5129396;27;20039;-74
2023/04/30 06:04:41;;;;;;;12.20;3.58;;;7.80;99.90;;;;;;5127546;27;20484;-74
2023/04/30 06:07:06;;;;;;;14.15;3.95;;;7.90;99.90;;;;;;5110618;27;20051;-75
2023/04/30 06:09:32;;;;;;;7.97;3.05;;;8.00;99.90;;;;;;5092287;27;20410;-74
2023/04/30 06:11:58;;;;;;;22.10;4.13;;;8.10;99.90;;;;;;5109849;27;20492;-74
2023/04/30 06:14:24;;;;;;;12.45;3.53;;;8.10;99.90;;;;;;5093223;27;20047;-74
2023/04/30 06:16:50;;;;;;;16.92;3.72;;;9.40;99.90;;;;;;5108772;27;20513;-73
2023/04/30 06:19:16;;;;;;;17.75;3.33;;;8.50;99.90;;;;;;5128818;27;20047;-73
2023/04/30 06:21:44;;;;;;;10.73;2.72;;;9.40;99.90;;;;;;5108002;28;20122;-73
2023/04/30 06:24:10;;;;;;;10.25;2.85;;;8.80;99.90;;;;;;5128372;27;20058;-73
2023/04/30 06:26:35;;;;;;;10.43;2.70;;;8.70;99.90;;;;;;5108812;27;20051;-73
2023/04/30 06:29:01;;;;;;;11.68;2.70;;;8.70;99.90;;;;;;5128386;27;20421;-73
2023/04/30 06:31:27;;;;;;;13.60;2.40;;;8.80;99.90;;;;;;5109696;27;20043;-74
2023/04/30 06:33:53;;;;;;;11.05;2.33;;;8.90;99.90;;;;;;5108855;27;20039;-73
2023/04/30 06:36:19;;;;;;;14.95;2.83;;;9.10;99.90;;;;;;5128383;27;20418;-72
2023/04/30 06:38:48;;;;;;;10.75;2.53;;;9.00;99.90;;;;;;5126604;27;20078;-73
2023/04/30 06:41:15;;;;;;;7.68;2.33;;;9.00;99.90;;;;;;5110245;27;20088;-74
2023/04/30 06:43:41;;;;;;;9.60;2.55;;;9.10;99.90;;;;;;5108533;27;20049;-75
2023/04/30 06:46:07;;;;;;;14.73;2.03;;;9.00;99.90;;;;;;5109147;27;20043;-74
2023/04/30 06:48:33;;;;;;;14.48;2.38;;;9.10;99.90;;;;;;5109392;27;20088;-76
2023/04/30 06:50:58;;;;;;;18.40;2.45;;;9.20;99.90;;;;;;5074810;27;20141;-76
2023/04/30 06:53:24;;;;;;;10.27;2.22;;;9.20;99.90;;;;;;5092453;27;20410;-76
2023/04/30 06:55:50;;;;;;;9.05;2.13;;;9.30;99.90;;;;;;5091412;27;20139;-76
2023/04/30 06:58:17;;;;;;;7.35;2.22;;;9.70;99.90;;;;;;5128335;27;20050;-75
2023/04/30 07:00:43;;;;;;;8.00;2.13;;;9.60;99.90;;;;;;5126625;27;20125;-76
2023/04/30 07:03:09;;;;;;;9.63;1.65;;;9.50;99.90;;;;;;5109587;27;20067;-76
2023/04/30 07:05:34;;;;;;;14.30;2.55;;;9.60;99.90;;;;;;5127435;27;20043;-76
2023/04/30 07:08:02;;;;;;;9.50;1.85;;;9.70;99.90;;;;;;5126871;27;20544;-75
2023/04/30 07:10:28;;;;;;;10.20;2.25;;;9.70;99.90;;;;;;5128093;27;20157;-74
2023/04/30 07:12:54;;;;;;;11.15;2.13;;;9.80;99.90;;;;;;5125903;27;20478;-74
2023/04/30 07:15:20;;;;;;;8.93;1.45;;;9.90;99.90;;;;;;5127818;27;20045;-74
2023/04/30 07:17:46;;;;;;;12.48;2.13;;;10.00;99.90;;;;;;5126389;27;20057;-73
2023/04/30 07:20:13;;;;;;;10.57;2.17;;;10.10;99.90;;;;;;5109643;27;20497;-73
2023/04/30 07:22:40;;;;;;;6.07;1.40;;;10.20;99.90;;;;;;5127277;27;20058;-74
2023/04/30 07:25:06;;;;;;;9.93;1.83;;;10.30;99.90;;;;;;5126385;27;20043;-73
2023/04/30 07:27:32;;;;;;;11.18;2.00;;;10.30;99.90;;;;;;5127688;27;20040;-73
2023/04/30 07:29:57;;;;;;;9.20;3.03;;;10.40;99.90;;;;;;5126416;27;20050;-73
2023/04/30 07:32:25;;;;;;;10.07;1.70;;;10.50;99.90;;;;;;5092208;28;20045;-74
2023/04/30 07:34:52;;;;;;;14.05;1.73;;;10.60;99.90;;;;;;5107297;28;20086;-74
2023/04/30 07:37:18;;;;;;;10.38;1.98;;;10.70;99.90;;;;;;5127278;27;20042;-74
2023/04/30 07:39:44;;;;;;;14.00;1.85;;;10.80;99.90;;;;;;5107814;28;20051;-74
2023/04/30 07:42:10;;;;;;;9.13;1.30;;;10.90;99.90;;;;;;5108038;28;20091;-74
2023/04/30 07:44:35;;;;;;;13.75;1.77;;;10.90;99.90;;;;;;5127488;28;20147;-76
2023/04/30 07:47:01;;;;;;;9.20;1.40;;;11.00;99.90;;;;;;5107778;28;20047;-75
2023/04/30 07:49:27;;;;;;;9.93;1.38;;;11.20;99.90;;;;;;5127584;28;20102;-76
2023/04/30 07:51:53;;;;;;;10.65;2.03;;;11.30;99.90;;;;;;5107467;28;20172;-76
2023/04/30 07:54:19;;;;;;;9.13;2.05;;;11.40;99.90;;;;;;5127464;28;20098;-77
2023/04/30 07:56:44;;;;;;;10.90;2.03;;;11.50;99.90;;;;;;5126608;28;20099;-76
2023/04/30 07:59:10;;;;;;;11.80;1.67;;;11.70;99.90;;;;;;5090727;28;20070;-76
2023/04/30 08:01:36;;;;;;;9.77;1.95;;;11.70;99.90;;;;;;5126989;28;20054;-76
2023/04/30 08:04:02;;;;;;;9.48;2.33;;;11.80;99.90;;;;;;5107309;28;20130;-76
2023/04/30 08:06:27;;;;;;;9.45;1.88;;;11.90;99.90;;;;;;5127298;28;20035;-76
2023/04/30 08:08:53;;;;;;;8.15;1.65;;;12.00;99.90;;;;;;5090026;28;20035;-76
2023/04/30 08:11:19;;;;;;;8.52;1.65;;;12.10;99.90;;;;;;5109053;28;20108;-76
2023/04/30 08:13:45;;;;;;;9.25;1.73;;;12.50;99.90;;;;;;5108086;28;20401;-76
2023/04/30 08:16:11;;;;;;;8.43;1.55;;;12.30;99.90;;;;;;5108163;28;20043;-76
2023/04/30 08:18:43;;;;;;;7.97;1.52;;;12.30;99.90;;;;;;5108125;28;20429;-76
2023/04/30 08:21:10;;;;;;;6.82;1.20;;;12.50;99.90;;;;;;5107828;28;20054;-77
2023/04/30 08:23:36;;;;;;;13.18;1.88;;;12.30;99.90;;;;;;5108594;28;20050;-76
2023/04/30 08:26:01;;;;;;;9.40;1.63;;;12.40;99.90;;;;;;5106756;28;20535;-76
2023/04/30 08:28:27;;;;;;;8.32;1.75;;;12.40;99.90;;;;;;5091597;28;20096;-75
2023/04/30 08:30:54;;;;;;;9.77;1.45;;;12.40;99.90;;;;;;5125808;28;20047;-75
2023/04/30 08:33:20;;;;;;;21.70;9.00;;;12.50;99.90;;;;;;5107952;28;20075;-75
2023/04/30 08:35:45;;;;;;;8.32;2.20;;;12.60;99.90;;;;;;5108314;28;20047;-75
2023/04/30 08:38:11;;;;;;;5.60;1.85;;;12.70;99.90;;;;;;5125630;28;20402;-75
2023/04/30 08:40:38;;;;;;;15.35;1.77;;;12.70;99.90;;;;;;5126705;27;20413;-75
2023/04/30 08:43:07;;;;;;;6.10;1.30;;;12.80;99.90;;;;;;5107075;28;20053;-75
2023/04/30 08:45:35;;;;;;;11.20;3.10;;;12.80;99.90;;;;;;5127671;27;20039;-76
2023/04/30 08:48:03;;;;;;;7.32;1.60;;;12.80;99.90;;;;;;5111645;27;20498;-76
2023/04/30 08:50:29;;;;;;;11.20;1.70;;;12.80;99.90;;;;;;5130033;27;20488;-75
2023/04/30 08:52:57;;;;;;;8.13;1.15;;;12.80;99.90;;;;;;5111911;27;20039;-76
2023/04/30 08:55:25;;;;;;;4.75;1.20;;;12.80;99.90;;;;;;5128760;27;20091;-76
2023/04/30 08:57:51;;;;;;;11.38;1.40;;;12.90;99.90;;;;;;5112097;27;20050;-76
2023/04/30 09:00:17;;;;;;;8.50;1.58;;;12.90;99.90;;;;;;5110619;27;20104;-76
2023/04/30 09:02:44;;;;;;;11.02;1.40;;;13.00;99.90;;;;;;5130495;27;20049;-76
2023/04/30 09:05:11;;;;;;;7.72;1.70;;;13.20;99.90;;;;;;5128942;27;20525;-76
2023/04/30 09:07:41;;;;;;;15.80;1.70;;;13.20;99.90;;;;;;5129526;27;20032;-76
2023/04/30 09:10:30;;;;;;;10.93;2.13;;;13.10;99.90;;;;;;5111085;27;20534;-76
2023/04/30 09:13:10;;;;;;;8.77;1.50;;;13.20;99.90;;;;;;5110251;27;20394;-75
2023/04/30 09:15:39;;;;;;;8.57;1.38;;;13.20;99.90;;;;;;5130241;27;20053;-76
2023/04/30 09:18:11;;;;;;;6.20;1.33;;;13.30;99.90;;;;;;5129095;27;20413;-76
2023/04/30 09:20:52;;;;;;;6.85;1.50;;;13.30;99.90;;;;;;5110566;27;20119;-76
2023/04/30 09:23:17;;;;;;;7.57;1.90;;;13.40;99.90;;;;;;5111553;27;20100;-76
2023/04/30 09:25:43;;;;;;;7.72;1.70;;;13.40;99.90;;;;;;5128393;27;20047;-75
2023/04/30 09:28:10;;;;;;;8.75;1.60;;;13.50;99.90;;;;;;5111334;27;20083;-75
2023/04/30 09:30:36;;;;;;;8.32;2.00;;;13.60;99.90;;;;;;5128710;27;20122;-76
2023/04/30 09:33:02;;;;;;;7.45;1.80;;;13.60;99.90;;;;;;5093798;27;20079;-76
2023/04/30 09:35:33;;;;;;;11.00;2.40;;;13.70;99.90;;;;;;5093995;27;20473;-75
2023/04/30 09:38:02;;;;;;;8.80;1.70;;;13.70;99.90;;;;;;5092618;27;20047;-76
2023/04/30 09:40:36;;;;;;;16.05;2.05;;;13.80;99.90;;;;;;5093793;27;20055;-75
2023/04/30 09:43:02;;;;;;;11.90;1.98;;;14.80;99.90;;;;;;5109223;27;20078;-76
2023/04/30 09:45:48;;;;;;;10.23;1.85;;;14.00;99.90;;;;;;5110719;27;20043;-75
2023/04/30 09:48:15;;;;;;;8.35;1.70;;;14.00;99.90;;;;;;5128457;27;20075;-76
2023/04/30 09:50:41;;;;;;;13.30;1.92;;;14.00;99.90;;;;;;5109581;27;20050;-76
2023/04/30 09:53:09;;;;;;;8.50;1.70;;;14.00;99.90;;;;;;5129413;27;20118;-76
2023/04/30 09:55:35;;;;;;;7.25;1.00;;;14.10;99.90;;;;;;5128143;27;20090;-76
2023/04/30 09:58:06;;;;;;;6.53;1.60;;;14.20;99.90;;;;;;5129240;27;20050;-76
2023/04/30 10:00:36;;;;;;;9.98;2.78;;;14.20;99.90;;;;;;5109166;27;20184;-75
2023/04/30 10:03:14;;;;;;;8.13;1.40;;;14.20;99.90;;;;;;5128440;27;20058;-75
2023/04/30 10:05:47;;;;;;;3.45;1.23;;;14.20;99.90;;;;;;5093040;27;20058;-76
2023/04/30 10:08:27;;;;;;;9.32;1.73;;;14.30;99.90;;;;;;5127575;27;20089;-77
2023/04/30 10:11:04;;;;;;;9.98;1.80;;;14.40;99.90;;;;;;5129055;27;20569;-76
2023/04/30 10:13:34;;;;;;;6.13;1.13;;;14.40;99.90;;;;;;5127531;27;20047;-76
2023/04/30 10:16:17;;;;;;;11.13;2.00;;;14.50;99.90;;;;;;5109594;27;20055;-76
2023/04/30 10:18:45;;;;;;;6.80;1.15;;;14.60;99.90;;;;;;5110455;27;20474;-75
2023/04/30 10:21:13;;;;;;;10.88;1.40;;;14.80;99.90;;;;;;5127341;27;20424;-76
2023/04/30 10:23:40;;;;;;;5.30;1.95;;;15.00;99.90;;;;;;5093515;27;20117;-76
2023/04/30 10:26:09;;;;;;;5.70;1.70;;;15.10;99.90;;;;;;5108580;27;20533;-76
2023/04/30 10:28:36;;;;;;;8.13;1.38;;;15.10;99.90;;;;;;5128239;27;20046;-76
2023/04/30 10:31:04;;;;;;;9.38;2.00;;;15.10;99.90;;;;;;5109488;27;20043;-76
2023/04/30 10:33:57;;;;;;;6.95;1.40;;;15.20;99.90;;;;;;5108738;27;20043;-76
2023/04/30 10:36:36;;;;;;;3.72;1.20;;;15.30;99.90;;;;;;5110392;27;20054;-77
2023/04/30 10:39:02;;;;;;;7.78;1.90;;;16.10;99.90;;;;;;5091521;27;20138;-76
2023/04/30 10:41:29;;;;;;;9.60;1.58;;;15.30;99.90;;;;;;5109787;27;20112;-76
2023/04/30 10:44:01;;;;;;;7.82;1.65;;;15.30;99.90;;;;;;5127675;27;20082;-76
2023/04/30 10:46:27;;;;;;;6.80;2.35;;;15.20;99.90;;;;;;5108833;27;20074;-76
2023/04/30 10:48:54;;;;;;;11.63;1.80;;;15.20;99.90;;;;;;5109633;27;20036;-77
2023/04/30 10:51:20;;;;;;;11.88;1.52;;;15.30;99.90;;;;;;5108194;27;20047;-77
2023/04/30 10:53:50;;;;;;;6.45;1.40;;;15.30;99.90;;;;;;5109711;27;20047;-77
2023/04/30 10:56:30;;;;;;;7.63;1.58;;;15.40;99.90;;;;;;5091607;27;20401;-77
2023/04/30 10:59:00;;;;;;;10.45;2.00;;;15.60;99.90;;;;;;5108579;27;20039;-77
2023/04/30 11:01:27;;;;;;;9.52;2.25;;;15.70;99.90;;;;;;5109164;27;20046;-76
2023/04/30 11:04:10;;;;;;;10.48;2.80;;;15.80;99.90;;;;;;5126081;27;20114;-76
2023/04/30 11:06:52;;;;;;;6.32;1.67;;;15.90;99.90;;;;;;5128068;27;20448;-76
2023/04/30 11:09:19;;;;;;;9.30;2.33;;;16.00;99.90;;;;;;5126281;27;20111;-76
2023/04/30 11:11:46;;;;;;;6.53;2.03;;;16.00;99.90;;;;;;5108588;27;20043;-76
2023/04/30 11:14:19;;;;;;;11.27;2.08;;;16.10;99.90;;;;;;5127553;27;20073;-76
2023/04/30 11:16:47;;;;;;;;;;;16.10;99.90;;;;;;5108112;27;20120;-76
2023/04/30 11:19:13;;;;;;;8.65;2.75;;;16.10;99.90;;;;;;5109631;27;19919;-76
2023/04/30 11:21:40;;;;;;;3.97;1.67;;;16.10;99.90;;;;;;5107616;28;20099;-76
2023/04/30 11:24:06;;;;;;;9.95;2.28;;;16.10;99.90;;;;;;5127883;27;20337;-77
2023/04/30 11:27:07;;;;;;;6.38;1.55;;;16.10;99.90;;;;;;5108957;27;20047;-76
2023/04/30 11:29:34;;;;;;;7.80;1.45;;;16.10;99.70;;;;;;5106423;27;20062;-77
2023/04/30 11:32:02;;;;;;;6.72;1.92;;;16.00;99.90;;;;;;5108878;28;20122;-77
2023/04/30 11:34:29;;;;;;;2.92;1.23;;;16.00;99.90;;;;;;5090627;27;20139;-77
2023/04/30 11:36:58;;;;;;;8.65;2.55;;;16.20;99.90;;;;;;5108959;27;20058;-76
2023/04/30 11:39:25;;;;;;;12.23;2.30;;;16.30;99.80;;;;;;5126261;27;20074;-77
2023/04/30 11:41:51;;;;;;;2.70;1.52;;;16.50;99.80;;;;;;5090627;28;20047;-76
2023/04/30 11:44:26;;;;;;;4.07;1.25;;;16.70;99.80;;;;;;5126881;28;20049;-77
2023/04/30 11:46:53;;;;;;;8.60;4.35;;;17.00;99.10;;;;;;5125984;28;20047;-77
2023/04/30 11:49:22;;;;;;;10.98;1.90;;;17.20;99.30;;;;;;5108969;28;20047;-76
2023/04/30 11:51:49;;;;;;;4.20;1.38;;;17.30;99.00;;;;;;5107732;28;20389;-76
2023/04/30 11:54:15;;;;;;;9.00;1.40;;;17.40;98.90;;;;;;5126774;28;20072;-77
2023/04/30 11:56:49;;;;;;;9.70;1.73;;;17.60;98.50;;;;;;5091321;28;20043;-76
2023/04/30 11:59:16;;;;;;;3.88;1.30;;;17.70;97.70;;;;;;5126010;28;20069;-77
2023/04/30 12:01:42;;;;;;;5.07;1.20;;;17.60;97.50;;;;;;5127433;28;20043;-77
2023/04/30 12:04:09;;;;;;;5.72;1.00;;;17.60;97.40;;;;;;5125432;28;20046;-76
2023/04/30 12:06:35;;;;;;;6.75;1.08;;;17.60;97.00;;;;;;5127346;28;20050;-76
2023/04/30 12:09:05;;;;;;;10.60;1.70;;;17.50;96.90;;;;;;5107512;28;20108;-76
2023/04/30 12:11:32;;;;;;;3.97;1.17;;;17.70;97.00;;;;;;5127019;28;20039;-80
2023/04/30 12:15:59;;;;;;;6.05;1.75;;;17.90;96.00;;;;;;5141017;27;21012;-80
2023/04/30 12:18:27;;;;;;;1.60;0.93;;;18.00;96.50;;;;;;5107219;28;20056;-79
2023/04/30 12:20:53;;;;;;;8.52;3.10;;;17.90;95.70;;;;;;5071534;28;20044;-79
2023/04/30 12:23:19;;;;;;;159.98;46.22;;;18.00;95.80;;;;;;5073374;28;20517;-78
2023/04/30 12:25:46;;;;;;;130.90;35.35;;;18.00;96.10;;;;;;5088263;28;20044;-78
2023/04/30 12:28:12;;;;;;;6.00;2.08;;;18.10;96.50;;;;;;5090504;28;20090;-79
2023/04/30 12:30:38;;;;;;;8.85;2.35;;;18.20;96.40;;;;;;5106712;28;20411;-76
2023/04/30 12:33:04;;;;;;;5.35;1.90;;;18.30;96.20;;;;;;5107601;28;20056;-78
2023/04/30 12:35:31;;;;;;;4.78;2.22;;;18.50;95.80;;;;;;5107408;28;20059;-78
2023/04/30 12:38:04;;;;;;;4.18;0.95;;;18.60;95.30;;;;;;5106687;28;20441;-83
2023/04/30 12:40:31;;;;;;;11.35;1.80;;;18.80;95.00;;;;;;5107387;28;20047;-78
2023/04/30 12:43:23;;;;;;;6.05;1.33;;;18.90;94.90;;;;;;5106915;28;20047;-77
2023/04/30 12:45:50;;;;;;;4.43;1.37;;;18.90;92.60;;;;;;5106329;28;20087;-78
2023/04/30 12:48:17;;;;;;;8.43;1.38;;;18.90;93.60;;;;;;5108057;28;20043;-79
2023/04/30 12:50:54;;;;;;;9.35;1.85;;;18.90;93.50;;;;;;5106019;28;20048;-78
2023/04/30 12:53:20;;;;;;;2.40;1.20;;;18.80;93.00;;;;;;5107103;28;20433;-78
2023/04/30 12:56:06;;;;;;;3.38;1.23;;;18.80;93.10;;;;;;5105702;28;20108;-77